Aviation Digital Data Service (ADDS)

Output produced by METARs form (1340 UTC 10 July 2020)
found at http://www.aviationweather.gov/metar/data/
 
KCHA 101253Z 16004KT 10SM SCT100 26/23 A2997 RMK AO2 SLP140 T02610233
KCHA 101130Z 1012/1112 00000KT P6SM SCT080 
     FM101800 26005KT P6SM SCT080 
     FM110300 31005KT P6SM FEW100 
     FM110600 34006KT P6SM FEW180